sensor_id;sensor_type;location;lat;lon;timestamp;temperature;humidity
13446;DHT22;6795;51.232;3.764;2023-11-21T00:00:09;8.20;99.90
13446;DHT22;6795;51.232;3.764;2023-11-21T00:02:39;8.20;99.90
13446;DHT22;6795;51.232;3.764;2023-11-21T00:05:10;8.20;99.90
13446;DHT22;6795;51.232;3.764;2023-11-21T00:07:42;8.20;99.90
13446;DHT22;6795;51.232;3.764;2023-11-21T00:10:11;8.20;99.90
13446;DHT22;6795;51.232;3.764;2023-11-21T00:12:42;8.20;99.90
13446;DHT22;6795;51.232;3.764;2023-11-21T00:15:11;8.30;99.90
13446;DHT22;6795;51.232;3.764;2023-11-21T00:17:39;8.30;99.90
13446;DHT22;6795;51.232;3.764;2023-11-21T00:20:10;8.30;99.90
13446;DHT22;6795;51.232;3.764;2023-11-21T00:22:41;8.30;99.90
13446;DHT22;6795;51.232;3.764;2023-11-21T00:25:10;8.30;99.90
13446;DHT22;6795;51.232;3.764;2023-11-21T00:27:39;8.30;99.90
13446;DHT22;6795;51.232;3.764;2023-11-21T00:30:08;8.20;99.90
13446;DHT22;6795;51.232;3.764;2023-11-21T00:32:37;8.20;99.90
13446;DHT22;6795;51.232;3.764;2023-11-21T00:35:06;8.20;99.90
13446;DHT22;6795;51.232;3.764;2023-11-21T00:37:37;8.20;99.90
13446;DHT22;6795;51.232;3.764;2023-11-21T00:40:07;8.30;99.90
13446;DHT22;6795;51.232;3.764;2023-11-21T00:42:36;8.20;99.90
13446;DHT22;6795;51.232;3.764;2023-11-21T00:45:06;8.20;99.90
13446;DHT22;6795;51.232;3.764;2023-11-21T00:47:35;8.20;99.90
13446;DHT22;6795;51.232;3.764;2023-11-21T00:50:05;8.10;99.90
13446;DHT22;6795;51.232;3.764;2023-11-21T00:52:34;8.10;99.90
13446;DHT22;6795;51.232;3.764;2023-11-21T00:55:05;8.10;99.90
13446;DHT22;6795;51.232;3.764;2023-11-21T00:57:35;8.20;99.90
13446;DHT22;6795;51.232;3.764;2023-11-21T01:00:05;8.20;99.90
13446;DHT22;6795;51.232;3.764;2023-11-21T01:02:38;8.30;99.90
13446;DHT22;6795;51.232;3.764;2023-11-21T01:05:07;8.30;99.90
13446;DHT22;6795;51.232;3.764;2023-11-21T01:07:36;8.40;99.90
13446;DHT22;6795;51.232;3.764;2023-11-21T01:10:06;8.40;99.90
13446;DHT22;6795;51.232;3.764;2023-11-21T01:12:36;8.40;99.90
13446;DHT22;6795;51.232;3.764;2023-11-21T01:15:06;8.40;99.90
13446;DHT22;6795;51.232;3.764;2023-11-21T01:17:35;8.50;99.90
13446;DHT22;6795;51.232;3.764;2023-11-21T01:20:06;8.50;99.90
13446;DHT22;6795;51.232;3.764;2023-11-21T01:22:39;8.50;99.90
13446;DHT22;6795;51.232;3.764;2023-11-21T01:25:10;8.60;99.90
13446;DHT22;6795;51.232;3.764;2023-11-21T01:27:38;8.60;99.90
13446;DHT22;6795;51.232;3.764;2023-11-21T01:30:08;8.70;99.90
13446;DHT22;6795;51.232;3.764;2023-11-21T01:32:37;8.70;99.90
13446;DHT22;6795;51.232;3.764;2023-11-21T01:35:07;8.70;99.90
13446;DHT22;6795;51.232;3.764;2023-11-21T01:37:37;8.80;99.90
13446;DHT22;6795;51.232;3.764;2023-11-21T01:40:07;8.80;99.90
13446;DHT22;6795;51.232;3.764;2023-11-21T01:42:42;8.90;99.90
13446;DHT22;6795;51.232;3.764;2023-11-21T01:45:12;8.90;99.90
13446;DHT22;6795;51.232;3.764;2023-11-21T01:47:42;8.90;99.90
13446;DHT22;6795;51.232;3.764;2023-11-21T01:50:15;8.90;99.90
13446;DHT22;6795;51.232;3.764;2023-11-21T01:52:45;8.90;99.90
13446;DHT22;6795;51.232;3.764;2023-11-21T01:55:16;8.90;99.90
13446;DHT22;6795;51.232;3.764;2023-11-21T01:57:56;9.00;99.90
13446;DHT22;6795;51.232;3.764;2023-11-21T02:00:27;9.00;99.90
13446;DHT22;6795;51.232;3.764;2023-11-21T02:02:57;8.90;99.90
13446;DHT22;6795;51.232;3.764;2023-11-21T02:05:26;9.00;99.90
13446;DHT22;6795;51.232;3.764;2023-11-21T02:07:56;8.90;99.90
13446;DHT22;6795;51.232;3.764;2023-11-21T02:10:25;9.00;99.90
13446;DHT22;6795;51.232;3.764;2023-11-21T02:12:53;9.00;99.90
13446;DHT22;6795;51.232;3.764;2023-11-21T02:15:24;9.00;99.90
13446;DHT22;6795;51.232;3.764;2023-11-21T02:17:56;9.10;99.90
13446;DHT22;6795;51.232;3.764;2023-11-21T02:20:26;9.10;99.90
13446;DHT22;6795;51.232;3.764;2023-11-21T02:22:58;9.10;99.90
13446;DHT22;6795;51.232;3.764;2023-11-21T02:25:28;9.20;99.90
13446;DHT22;6795;51.232;3.764;2023-11-21T02:27:58;9.20;99.90
13446;DHT22;6795;51.232;3.764;2023-11-21T02:30:28;9.20;99.90
13446;DHT22;6795;51.232;3.764;2023-11-21T02:32:59;9.30;99.90
13446;DHT22;6795;51.232;3.764;2023-11-21T02:35:28;9.30;99.90
13446;DHT22;6795;51.232;3.764;2023-11-21T02:38:00;9.30;99.90
13446;DHT22;6795;51.232;3.764;2023-11-21T02:40:29;9.30;99.90
13446;DHT22;6795;51.232;3.764;2023-11-21T02:42:57;9.30;99.90
13446;DHT22;6795;51.232;3.764;2023-11-21T02:45:27;9.30;99.90
13446;DHT22;6795;51.232;3.764;2023-11-21T02:47:55;9.30;99.90
13446;DHT22;6795;51.232;3.764;2023-11-21T02:50:25;9.30;99.90
13446;DHT22;6795;51.232;3.764;2023-11-21T02:52:54;9.30;99.90
13446;DHT22;6795;51.232;3.764;2023-11-21T02:55:26;9.40;99.90
13446;DHT22;6795;51.232;3.764;2023-11-21T02:57:55;9.40;99.90
13446;DHT22;6795;51.232;3.764;2023-11-21T03:00:24;9.40;99.90
13446;DHT22;6795;51.232;3.764;2023-11-21T03:02:54;9.40;99.90
13446;DHT22;6795;51.232;3.764;2023-11-21T03:05:22;9.40;99.90
13446;DHT22;6795;51.232;3.764;2023-11-21T03:07:51;9.40;99.90
13446;DHT22;6795;51.232;3.764;2023-11-21T03:10:19;9.50;99.90
13446;DHT22;6795;51.232;3.764;2023-11-21T03:12:49;9.50;99.90
13446;DHT22;6795;51.232;3.764;2023-11-21T03:15:17;9.50;99.90
13446;DHT22;6795;51.232;3.764;2023-11-21T03:17:46;9.50;99.90
13446;DHT22;6795;51.232;3.764;2023-11-21T03:20:16;9.50;99.90
13446;DHT22;6795;51.232;3.764;2023-11-21T03:22:44;9.60;99.90
13446;DHT22;6795;51.232;3.764;2023-11-21T03:25:13;9.50;99.90
13446;DHT22;6795;51.232;3.764;2023-11-21T03:27:42;9.50;99.90
13446;DHT22;6795;51.232;3.764;2023-11-21T03:30:13;9.60;99.90
13446;DHT22;6795;51.232;3.764;2023-11-21T03:32:41;9.60;99.90
13446;DHT22;6795;51.232;3.764;2023-11-21T03:35:09;9.60;99.90
13446;DHT22;6795;51.232;3.764;2023-11-21T03:37:38;9.60;99.90
13446;DHT22;6795;51.232;3.764;2023-11-21T03:40:09;9.60;99.90
13446;DHT22;6795;51.232;3.764;2023-11-21T03:42:40;9.60;99.90
13446;DHT22;6795;51.232;3.764;2023-11-21T03:45:09;9.60;99.90
13446;DHT22;6795;51.232;3.764;2023-11-21T03:47:41;9.60;99.90
13446;DHT22;6795;51.232;3.764;2023-11-21T03:50:10;9.60;99.90
13446;DHT22;6795;51.232;3.764;2023-11-21T03:52:39;9.70;99.90
13446;DHT22;6795;51.232;3.764;2023-11-21T03:55:09;9.70;99.90
13446;DHT22;6795;51.232;3.764;2023-11-21T03:57:37;9.70;99.90
13446;DHT22;6795;51.232;3.764;2023-11-21T04:00:07;9.70;99.90
13446;DHT22;6795;51.232;3.764;2023-11-21T04:02:37;9.70;99.90
13446;DHT22;6795;51.232;3.764;2023-11-21T04:05:08;9.70;99.90
13446;DHT22;6795;51.232;3.764;2023-11-21T04:07:37;9.70;99.90
13446;DHT22;6795;51.232;3.764;2023-11-21T04:10:07;9.80;99.90
13446;DHT22;6795;51.232;3.764;2023-11-21T04:12:36;9.80;99.90
13446;DHT22;6795;51.232;3.764;2023-11-21T04:15:05;9.80;99.90
13446;DHT22;6795;51.232;3.764;2023-11-21T04:17:36;9.70;99.90
13446;DHT22;6795;51.232;3.764;2023-11-21T04:20:05;9.60;99.90
13446;DHT22;6795;51.232;3.764;2023-11-21T04:22:40;9.60;99.90
13446;DHT22;6795;51.232;3.764;2023-11-21T04:25:13;9.40;99.90
13446;DHT22;6795;51.232;3.764;2023-11-21T04:27:43;9.30;99.90
13446;DHT22;6795;51.232;3.764;2023-11-21T04:30:13;9.20;99.90
13446;DHT22;6795;51.232;3.764;2023-11-21T04:32:42;9.20;99.90
13446;DHT22;6795;51.232;3.764;2023-11-21T04:35:11;9.20;99.90
13446;DHT22;6795;51.232;3.764;2023-11-21T04:37:40;9.20;99.90
13446;DHT22;6795;51.232;3.764;2023-11-21T04:40:10;9.30;99.90
13446;DHT22;6795;51.232;3.764;2023-11-21T04:42:38;9.40;99.90
13446;DHT22;6795;51.232;3.764;2023-11-21T04:45:08;9.40;99.90
13446;DHT22;6795;51.232;3.764;2023-11-21T04:47:39;9.50;99.90
13446;DHT22;6795;51.232;3.764;2023-11-21T04:50:08;9.50;99.90
13446;DHT22;6795;51.232;3.764;2023-11-21T04:52:37;9.50;99.90
13446;DHT22;6795;51.232;3.764;2023-11-21T04:55:07;9.60;99.90
13446;DHT22;6795;51.232;3.764;2023-11-21T04:57:38;9.60;99.90
13446;DHT22;6795;51.232;3.764;2023-11-21T05:00:09;9.70;99.90
13446;DHT22;6795;51.232;3.764;2023-11-21T05:02:40;9.70;99.90
13446;DHT22;6795;51.232;3.764;2023-11-21T05:05:09;9.70;99.90
13446;DHT22;6795;51.232;3.764;2023-11-21T05:07:38;9.70;99.90
13446;DHT22;6795;51.232;3.764;2023-11-21T05:10:09;9.70;99.90
13446;DHT22;6795;51.232;3.764;2023-11-21T05:12:40;9.70;99.90
13446;DHT22;6795;51.232;3.764;2023-11-21T05:15:09;9.70;99.90
13446;DHT22;6795;51.232;3.764;2023-11-21T05:17:38;9.70;99.90
13446;DHT22;6795;51.232;3.764;2023-11-21T05:20:09;9.70;99.90
13446;DHT22;6795;51.232;3.764;2023-11-21T05:22:39;9.60;99.90
13446;DHT22;6795;51.232;3.764;2023-11-21T05:25:11;9.60;99.90
13446;DHT22;6795;51.232;3.764;2023-11-21T05:27:40;9.60;99.90
13446;DHT22;6795;51.232;3.764;2023-11-21T05:30:09;9.60;99.90
13446;DHT22;6795;51.232;3.764;2023-11-21T05:32:39;9.60;99.90
13446;DHT22;6795;51.232;3.764;2023-11-21T05:35:09;9.60;99.90
13446;DHT22;6795;51.232;3.764;2023-11-21T05:37:42;9.60;99.90
13446;DHT22;6795;51.232;3.764;2023-11-21T05:40:13;9.60;99.90
13446;DHT22;6795;51.232;3.764;2023-11-21T05:42:41;9.60;99.90
13446;DHT22;6795;51.232;3.764;2023-11-21T05:45:10;9.50;99.90
13446;DHT22;6795;51.232;3.764;2023-11-21T05:47:42;9.50;99.90
13446;DHT22;6795;51.232;3.764;2023-11-21T05:50:14;9.40;99.90
13446;DHT22;6795;51.232;3.764;2023-11-21T05:52:44;9.40;99.90
13446;DHT22;6795;51.232;3.764;2023-11-21T05:55:15;9.40;99.90
13446;DHT22;6795;51.232;3.764;2023-11-21T05:57:45;9.40;99.90
13446;DHT22;6795;51.232;3.764;2023-11-21T06:00:14;9.40;99.90
13446;DHT22;6795;51.232;3.764;2023-11-21T06:02:48;9.40;99.90
13446;DHT22;6795;51.232;3.764;2023-11-21T06:05:18;9.40;99.90
13446;DHT22;6795;51.232;3.764;2023-11-21T06:07:47;9.50;99.90
13446;DHT22;6795;51.232;3.764;2023-11-21T06:10:17;9.50;99.90
13446;DHT22;6795;51.232;3.764;2023-11-21T06:12:46;9.50;99.90
13446;DHT22;6795;51.232;3.764;2023-11-21T06:15:15;9.60;99.90
13446;DHT22;6795;51.232;3.764;2023-11-21T06:17:46;9.60;99.90
13446;DHT22;6795;51.232;3.764;2023-11-21T06:20:19;9.60;99.90
13446;DHT22;6795;51.232;3.764;2023-11-21T06:22:49;9.60;99.90
13446;DHT22;6795;51.232;3.764;2023-11-21T06:25:20;9.60;99.90
13446;DHT22;6795;51.232;3.764;2023-11-21T06:27:49;9.70;99.90
13446;DHT22;6795;51.232;3.764;2023-11-21T06:30:19;9.70;99.90
13446;DHT22;6795;51.232;3.764;2023-11-21T06:32:49;9.70;99.90
13446;DHT22;6795;51.232;3.764;2023-11-21T06:35:18;9.70;99.90
13446;DHT22;6795;51.232;3.764;2023-11-21T06:37:49;9.60;99.90
13446;DHT22;6795;51.232;3.764;2023-11-21T06:40:20;9.70;99.90
13446;DHT22;6795;51.232;3.764;2023-11-21T06:42:49;9.70;99.90
13446;DHT22;6795;51.232;3.764;2023-11-21T06:45:19;9.70;99.90
13446;DHT22;6795;51.232;3.764;2023-11-21T06:47:48;9.70;99.90
13446;DHT22;6795;51.232;3.764;2023-11-21T06:50:17;9.80;99.90
13446;DHT22;6795;51.232;3.764;2023-11-21T06:52:46;9.80;99.90
13446;DHT22;6795;51.232;3.764;2023-11-21T06:55:14;9.80;99.90
13446;DHT22;6795;51.232;3.764;2023-11-21T06:57:45;9.80;99.90
13446;DHT22;6795;51.232;3.764;2023-11-21T07:00:16;10.00;99.90
13446;DHT22;6795;51.232;3.764;2023-11-21T07:02:45;10.10;99.90
13446;DHT22;6795;51.232;3.764;2023-11-21T07:05:14;10.10;99.90
13446;DHT22;6795;51.232;3.764;2023-11-21T07:07:48;10.20;99.90
13446;DHT22;6795;51.232;3.764;2023-11-21T07:10:17;10.30;99.90
13446;DHT22;6795;51.232;3.764;2023-11-21T07:12:46;10.30;99.90
13446;DHT22;6795;51.232;3.764;2023-11-21T07:15:15;10.30;99.90
13446;DHT22;6795;51.232;3.764;2023-11-21T07:17:44;10.30;99.90
13446;DHT22;6795;51.232;3.764;2023-11-21T07:20:14;10.30;99.90
13446;DHT22;6795;51.232;3.764;2023-11-21T07:22:44;10.30;99.90
13446;DHT22;6795;51.232;3.764;2023-11-21T07:25:13;10.20;99.90
13446;DHT22;6795;51.232;3.764;2023-11-21T07:27:41;10.30;99.90
13446;DHT22;6795;51.232;3.764;2023-11-21T07:30:13;10.20;99.90
13446;DHT22;6795;51.232;3.764;2023-11-21T07:32:41;10.20;99.90
13446;DHT22;6795;51.232;3.764;2023-11-21T07:35:10;10.30;99.90
13446;DHT22;6795;51.232;3.764;2023-11-21T07:37:38;10.20;99.90
13446;DHT22;6795;51.232;3.764;2023-11-21T07:40:08;10.20;99.90
13446;DHT22;6795;51.232;3.764;2023-11-21T07:42:38;10.20;99.90
13446;DHT22;6795;51.232;3.764;2023-11-21T07:45:08;10.10;99.90
13446;DHT22;6795;51.232;3.764;2023-11-21T07:47:37;10.10;99.90
13446;DHT22;6795;51.232;3.764;2023-11-21T07:50:08;10.00;99.90
13446;DHT22;6795;51.232;3.764;2023-11-21T07:52:37;10.10;99.90
13446;DHT22;6795;51.232;3.764;2023-11-21T07:55:06;10.00;99.90
13446;DHT22;6795;51.232;3.764;2023-11-21T07:57:35;10.00;99.90
13446;DHT22;6795;51.232;3.764;2023-11-21T08:00:04;9.90;99.90
13446;DHT22;6795;51.232;3.764;2023-11-21T08:02:38;9.90;99.90
13446;DHT22;6795;51.232;3.764;2023-11-21T08:05:06;9.90;99.90
13446;DHT22;6795;51.232;3.764;2023-11-21T08:07:41;9.90;99.90
13446;DHT22;6795;51.232;3.764;2023-11-21T08:10:10;9.90;99.90
13446;DHT22;6795;51.232;3.764;2023-11-21T08:12:38;9.90;99.90
13446;DHT22;6795;51.232;3.764;2023-11-21T08:15:07;10.00;99.90
13446;DHT22;6795;51.232;3.764;2023-11-21T08:17:37;10.00;99.90
13446;DHT22;6795;51.232;3.764;2023-11-21T08:20:06;10.20;99.90
13446;DHT22;6795;51.232;3.764;2023-11-21T08:22:36;10.30;99.90
13446;DHT22;6795;51.232;3.764;2023-11-21T08:25:08;10.40;99.90
13446;DHT22;6795;51.232;3.764;2023-11-21T08:27:37;10.50;99.90
13446;DHT22;6795;51.232;3.764;2023-11-21T08:30:06;10.60;99.90
13446;DHT22;6795;51.232;3.764;2023-11-21T08:32:36;10.70;99.90
13446;DHT22;6795;51.232;3.764;2023-11-21T08:35:07;10.80;99.90
13446;DHT22;6795;51.232;3.764;2023-11-21T08:37:36;11.00;99.90
13446;DHT22;6795;51.232;3.764;2023-11-21T08:40:07;11.10;99.90
13446;DHT22;6795;51.232;3.764;2023-11-21T08:42:36;11.30;99.90
13446;DHT22;6795;51.232;3.764;2023-11-21T08:45:06;11.50;99.90
13446;DHT22;6795;51.232;3.764;2023-11-21T08:47:37;11.60;99.90
13446;DHT22;6795;51.232;3.764;2023-11-21T08:50:07;11.60;99.90
13446;DHT22;6795;51.232;3.764;2023-11-21T08:52:35;11.70;99.90
13446;DHT22;6795;51.232;3.764;2023-11-21T08:55:05;11.80;99.90
13446;DHT22;6795;51.232;3.764;2023-11-21T08:57:35;11.90;99.90
13446;DHT22;6795;51.232;3.764;2023-11-21T09:00:04;12.00;99.90
13446;DHT22;6795;51.232;3.764;2023-11-21T09:02:35;12.00;99.90
13446;DHT22;6795;51.232;3.764;2023-11-21T09:05:06;12.10;99.90
13446;DHT22;6795;51.232;3.764;2023-11-21T09:07:36;12.10;99.90
13446;DHT22;6795;51.232;3.764;2023-11-21T09:10:06;12.10;99.90
13446;DHT22;6795;51.232;3.764;2023-11-21T09:12:36;12.10;99.90
13446;DHT22;6795;51.232;3.764;2023-11-21T09:15:06;12.20;99.90
13446;DHT22;6795;51.232;3.764;2023-11-21T09:17:36;12.20;99.90
13446;DHT22;6795;51.232;3.764;2023-11-21T09:20:08;12.20;99.90
13446;DHT22;6795;51.232;3.764;2023-11-21T09:22:37;12.20;99.90
13446;DHT22;6795;51.232;3.764;2023-11-21T09:25:07;12.20;99.90
13446;DHT22;6795;51.232;3.764;2023-11-21T09:27:36;12.20;99.90
13446;DHT22;6795;51.232;3.764;2023-11-21T09:30:05;12.30;99.90
13446;DHT22;6795;51.232;3.764;2023-11-21T09:32:37;12.40;99.90
13446;DHT22;6795;51.232;3.764;2023-11-21T09:35:09;12.40;99.90
13446;DHT22;6795;51.232;3.764;2023-11-21T09:37:38;12.40;99.90
13446;DHT22;6795;51.232;3.764;2023-11-21T09:40:10;12.50;99.90
13446;DHT22;6795;51.232;3.764;2023-11-21T09:42:46;12.40;99.90
13446;DHT22;6795;51.232;3.764;2023-11-21T09:45:21;12.50;99.90
13446;DHT22;6795;51.232;3.764;2023-11-21T09:47:53;12.50;99.90
13446;DHT22;6795;51.232;3.764;2023-11-21T09:50:24;12.60;99.90
13446;DHT22;6795;51.232;3.764;2023-11-21T09:52:57;12.60;99.90
13446;DHT22;6795;51.232;3.764;2023-11-21T09:55:28;12.70;99.90
13446;DHT22;6795;51.232;3.764;2023-11-21T09:57:58;12.80;99.90
13446;DHT22;6795;51.232;3.764;2023-11-21T10:00:28;12.60;99.90
13446;DHT22;6795;51.232;3.764;2023-11-21T10:02:59;12.60;99.90
13446;DHT22;6795;51.232;3.764;2023-11-21T10:05:31;12.80;99.90
13446;DHT22;6795;51.232;3.764;2023-11-21T10:08:01;13.10;99.90
13446;DHT22;6795;51.232;3.764;2023-11-21T10:10:32;13.40;99.90
13446;DHT22;6795;51.232;3.764;2023-11-21T10:13:02;13.60;99.90
13446;DHT22;6795;51.232;3.764;2023-11-21T10:15:34;13.60;99.90
13446;DHT22;6795;51.232;3.764;2023-11-21T10:18:03;13.40;99.90
13446;DHT22;6795;51.232;3.764;2023-11-21T10:20:34;13.20;99.90
13446;DHT22;6795;51.232;3.764;2023-11-21T10:23:05;13.10;99.90
13446;DHT22;6795;51.232;3.764;2023-11-21T10:25:34;13.10;99.90
13446;DHT22;6795;51.232;3.764;2023-11-21T10:28:04;13.40;99.90
13446;DHT22;6795;51.232;3.764;2023-11-21T10:30:35;13.40;99.90
13446;DHT22;6795;51.232;3.764;2023-11-21T10:33:05;13.30;99.90
13446;DHT22;6795;51.232;3.764;2023-11-21T10:35:42;13.10;99.90
13446;DHT22;6795;51.232;3.764;2023-11-21T10:38:14;12.90;99.90
13446;DHT22;6795;51.232;3.764;2023-11-21T10:40:43;12.70;99.90
13446;DHT22;6795;51.232;3.764;2023-11-21T10:43:12;12.60;99.90
13446;DHT22;6795;51.232;3.764;2023-11-21T10:45:42;12.50;99.90
13446;DHT22;6795;51.232;3.764;2023-11-21T10:48:13;12.50;99.90
13446;DHT22;6795;51.232;3.764;2023-11-21T10:50:46;12.50;99.90
13446;DHT22;6795;51.232;3.764;2023-11-21T10:53:15;12.50;99.90
13446;DHT22;6795;51.232;3.764;2023-11-21T10:55:44;12.50;99.90
13446;DHT22;6795;51.232;3.764;2023-11-21T10:58:14;12.40;99.90
13446;DHT22;6795;51.232;3.764;2023-11-21T11:00:43;12.40;99.90
13446;DHT22;6795;51.232;3.764;2023-11-21T11:03:17;12.40;99.90
13446;DHT22;6795;51.232;3.764;2023-11-21T11:05:47;12.30;99.90
13446;DHT22;6795;51.232;3.764;2023-11-21T11:08:21;12.30;99.90
13446;DHT22;6795;51.232;3.764;2023-11-21T11:10:55;12.30;99.90
13446;DHT22;6795;51.232;3.764;2023-11-21T11:13:25;12.20;99.90
13446;DHT22;6795;51.232;3.764;2023-11-21T11:15:58;12.30;99.90
13446;DHT22;6795;51.232;3.764;2023-11-21T11:18:28;12.40;99.90
13446;DHT22;6795;51.232;3.764;2023-11-21T11:21:05;12.40;99.90
13446;DHT22;6795;51.232;3.764;2023-11-21T11:23:49;12.50;99.90
13446;DHT22;6795;51.232;3.764;2023-11-21T11:26:30;12.60;99.90
13446;DHT22;6795;51.232;3.764;2023-11-21T11:29:05;12.60;99.90
13446;DHT22;6795;51.232;3.764;2023-11-21T11:31:45;12.70;99.90
13446;DHT22;6795;51.232;3.764;2023-11-21T11:34:26;12.70;99.90
13446;DHT22;6795;51.232;3.764;2023-11-21T11:37:01;12.70;99.90
13446;DHT22;6795;51.232;3.764;2023-11-21T11:39:34;12.70;99.90
13446;DHT22;6795;51.232;3.764;2023-11-21T11:42:07;12.70;99.90
13446;DHT22;6795;51.232;3.764;2023-11-21T11:44:50;12.70;99.90
13446;DHT22;6795;51.232;3.764;2023-11-21T11:47:25;12.60;99.90
13446;DHT22;6795;51.232;3.764;2023-11-21T11:50:04;12.60;99.90
13446;DHT22;6795;51.232;3.764;2023-11-21T11:52:40;12.50;99.90
13446;DHT22;6795;51.232;3.764;2023-11-21T11:55:11;12.40;99.90
13446;DHT22;6795;51.232;3.764;2023-11-21T11:57:41;12.40;99.90
13446;DHT22;6795;51.232;3.764;2023-11-21T12:00:12;12.40;99.90
13446;DHT22;6795;51.232;3.764;2023-11-21T12:02:45;12.40;99.90
13446;DHT22;6795;51.232;3.764;2023-11-21T12:05:16;12.40;99.90
13446;DHT22;6795;51.232;3.764;2023-11-21T12:07:49;12.40;99.90
13446;DHT22;6795;51.232;3.764;2023-11-21T12:10:19;12.30;99.90
13446;DHT22;6795;51.232;3.764;2023-11-21T12:12:51;12.30;99.90
13446;DHT22;6795;51.232;3.764;2023-11-21T12:15:21;12.30;99.90
13446;DHT22;6795;51.232;3.764;2023-11-21T12:17:52;12.30;99.90
13446;DHT22;6795;51.232;3.764;2023-11-21T12:20:22;12.20;99.90
13446;DHT22;6795;51.232;3.764;2023-11-21T12:22:54;12.20;99.90
13446;DHT22;6795;51.232;3.764;2023-11-21T12:25:24;12.20;99.90
13446;DHT22;6795;51.232;3.764;2023-11-21T12:27:57;12.10;99.90
13446;DHT22;6795;51.232;3.764;2023-11-21T12:30:26;12.20;99.90
13446;DHT22;6795;51.232;3.764;2023-11-21T12:32:58;12.20;99.90
13446;DHT22;6795;51.232;3.764;2023-11-21T12:35:28;12.20;99.90
13446;DHT22;6795;51.232;3.764;2023-11-21T12:37:59;12.20;99.90
13446;DHT22;6795;51.232;3.764;2023-11-21T12:40:30;12.30;99.90
13446;DHT22;6795;51.232;3.764;2023-11-21T12:43:00;12.30;99.90
13446;DHT22;6795;51.232;3.764;2023-11-21T12:45:32;12.40;99.90
13446;DHT22;6795;51.232;3.764;2023-11-21T12:48:02;12.40;99.90
13446;DHT22;6795;51.232;3.764;2023-11-21T12:50:37;12.40;99.90
13446;DHT22;6795;51.232;3.764;2023-11-21T12:53:09;12.40;99.90
13446;DHT22;6795;51.232;3.764;2023-11-21T12:55:43;12.40;99.90
13446;DHT22;6795;51.232;3.764;2023-11-21T12:58:17;12.40;99.90
13446;DHT22;6795;51.232;3.764;2023-11-21T13:00:49;12.40;99.90
13446;DHT22;6795;51.232;3.764;2023-11-21T13:03:18;12.50;99.90
13446;DHT22;6795;51.232;3.764;2023-11-21T13:05:53;12.50;99.90
13446;DHT22;6795;51.232;3.764;2023-11-21T13:08:26;12.50;99.90
13446;DHT22;6795;51.232;3.764;2023-11-21T13:10:57;12.50;99.90
13446;DHT22;6795;51.232;3.764;2023-11-21T13:13:28;12.50;99.90
13446;DHT22;6795;51.232;3.764;2023-11-21T13:15:59;12.60;99.90
13446;DHT22;6795;51.232;3.764;2023-11-21T13:18:34;12.60;99.90
13446;DHT22;6795;51.232;3.764;2023-11-21T13:21:04;12.80;99.90
13446;DHT22;6795;51.232;3.764;2023-11-21T13:23:39;12.70;99.90
13446;DHT22;6795;51.232;3.764;2023-11-21T13:26:09;12.80;99.90
13446;DHT22;6795;51.232;3.764;2023-11-21T13:28:39;12.70;99.90
13446;DHT22;6795;51.232;3.764;2023-11-21T13:31:14;12.60;99.90
13446;DHT22;6795;51.232;3.764;2023-11-21T13:33:54;12.50;99.90
13446;DHT22;6795;51.232;3.764;2023-11-21T13:36:32;12.40;99.90
13446;DHT22;6795;51.232;3.764;2023-11-21T13:39:06;12.40;99.90
13446;DHT22;6795;51.232;3.764;2023-11-21T13:41:42;12.30;99.90
13446;DHT22;6795;51.232;3.764;2023-11-21T13:44:13;12.30;99.90
13446;DHT22;6795;51.232;3.764;2023-11-21T13:46:54;12.30;99.90
13446;DHT22;6795;51.232;3.764;2023-11-21T13:49:24;12.20;99.90
13446;DHT22;6795;51.232;3.764;2023-11-21T13:51:54;12.20;99.90
13446;DHT22;6795;51.232;3.764;2023-11-21T13:54:24;12.20;99.90
13446;DHT22;6795;51.232;3.764;2023-11-21T13:56:52;12.20;99.90
13446;DHT22;6795;51.232;3.764;2023-11-21T13:59:22;12.20;99.90
13446;DHT22;6795;51.232;3.764;2023-11-21T14:01:53;12.20;99.90
13446;DHT22;6795;51.232;3.764;2023-11-21T14:04:25;12.20;99.90
13446;DHT22;6795;51.232;3.764;2023-11-21T14:07:14;12.20;99.90
13446;DHT22;6795;51.232;3.764;2023-11-21T14:09:54;12.10;99.90
13446;DHT22;6795;51.232;3.764;2023-11-21T14:12:23;12.00;99.90
13446;DHT22;6795;51.232;3.764;2023-11-21T14:14:51;11.90;99.90
13446;DHT22;6795;51.232;3.764;2023-11-21T14:17:21;11.90;99.90
13446;DHT22;6795;51.232;3.764;2023-11-21T14:19:51;11.80;99.90
13446;DHT22;6795;51.232;3.764;2023-11-21T14:22:22;11.80;99.90
13446;DHT22;6795;51.232;3.764;2023-11-21T14:24:54;11.80;99.90
13446;DHT22;6795;51.232;3.764;2023-11-21T14:27:27;11.70;99.90
13446;DHT22;6795;51.232;3.764;2023-11-21T14:29:56;11.60;99.90
13446;DHT22;6795;51.232;3.764;2023-11-21T14:32:25;11.60;99.90
13446;DHT22;6795;51.232;3.764;2023-11-21T14:34:54;11.60;99.90
13446;DHT22;6795;51.232;3.764;2023-11-21T14:37:22;11.60;99.90
13446;DHT22;6795;51.232;3.764;2023-11-21T14:39:51;11.60;99.90
13446;DHT22;6795;51.232;3.764;2023-11-21T14:42:21;11.60;99.90
13446;DHT22;6795;51.232;3.764;2023-11-21T14:44:52;11.70;99.90
13446;DHT22;6795;51.232;3.764;2023-11-21T14:47:24;11.70;99.90
13446;DHT22;6795;51.232;3.764;2023-11-21T14:49:54;11.70;99.90
13446;DHT22;6795;51.232;3.764;2023-11-21T14:52:27;11.70;99.90
13446;DHT22;6795;51.232;3.764;2023-11-21T14:55:02;11.70;99.90
13446;DHT22;6795;51.232;3.764;2023-11-21T14:58:00;11.70;99.90
13446;DHT22;6795;51.232;3.764;2023-11-21T15:00:31;11.70;99.90
13446;DHT22;6795;51.232;3.764;2023-11-21T15:03:12;11.70;99.90
13446;DHT22;6795;51.232;3.764;2023-11-21T15:05:59;11.60;99.90
13446;DHT22;6795;51.232;3.764;2023-11-21T15:08:37;11.60;99.90
13446;DHT22;6795;51.232;3.764;2023-11-21T15:11:04;11.60;99.90
13446;DHT22;6795;51.232;3.764;2023-11-21T15:13:37;11.50;99.90
13446;DHT22;6795;51.232;3.764;2023-11-21T15:16:06;11.50;99.90
13446;DHT22;6795;51.232;3.764;2023-11-21T15:18:35;11.50;99.90
13446;DHT22;6795;51.232;3.764;2023-11-21T15:21:04;11.50;99.90
13446;DHT22;6795;51.232;3.764;2023-11-21T15:23:34;11.50;99.90
13446;DHT22;6795;51.232;3.764;2023-11-21T15:26:03;11.50;99.90
13446;DHT22;6795;51.232;3.764;2023-11-21T15:28:32;11.50;99.90
13446;DHT22;6795;51.232;3.764;2023-11-21T15:31:02;11.50;99.90
13446;DHT22;6795;51.232;3.764;2023-11-21T15:33:31;11.50;99.90
13446;DHT22;6795;51.232;3.764;2023-11-21T15:35:59;11.50;99.90
13446;DHT22;6795;51.232;3.764;2023-11-21T15:38:27;11.50;99.90
13446;DHT22;6795;51.232;3.764;2023-11-21T15:40:55;11.50;99.90
13446;DHT22;6795;51.232;3.764;2023-11-21T15:43:25;11.40;99.90
13446;DHT22;6795;51.232;3.764;2023-11-21T15:45:55;11.40;99.90
13446;DHT22;6795;51.232;3.764;2023-11-21T15:48:26;11.40;99.90
13446;DHT22;6795;51.232;3.764;2023-11-21T15:50:56;11.40;99.90
13446;DHT22;6795;51.232;3.764;2023-11-21T15:53:26;11.40;99.90
13446;DHT22;6795;51.232;3.764;2023-11-21T15:55:54;11.40;99.90
13446;DHT22;6795;51.232;3.764;2023-11-21T15:58:22;11.30;99.90
13446;DHT22;6795;51.232;3.764;2023-11-21T16:00:52;11.30;99.90
13446;DHT22;6795;51.232;3.764;2023-11-21T16:03:21;11.40;99.90
13446;DHT22;6795;51.232;3.764;2023-11-21T16:05:51;11.30;99.90
13446;DHT22;6795;51.232;3.764;2023-11-21T16:08:20;11.30;99.90
13446;DHT22;6795;51.232;3.764;2023-11-21T16:10:49;11.30;99.90
13446;DHT22;6795;51.232;3.764;2023-11-21T16:13:17;11.20;99.90